createdAt,value
2023-01-26T00:01:30.301Z,86.91
2023-01-26T00:03:58.105Z,86.17
2023-01-26T00:06:26.481Z,87.03
2023-01-26T00:08:55.681Z,86.45
2023-01-26T00:11:27.065Z,86.79
2023-01-26T00:13:55.489Z,87.29
2023-01-26T00:16:22.841Z,87.90
2023-01-26T00:18:50.031Z,88.15
2023-01-26T00:21:19.664Z,87.81
2023-01-26T00:23:47.620Z,87.85
2023-01-26T00:26:17.452Z,87.79
2023-01-26T00:28:44.668Z,88.40
2023-01-26T00:31:23.632Z,88.15
2023-01-26T00:33:51.910Z,88.46
2023-01-26T00:36:19.058Z,88.22
2023-01-26T00:38:46.855Z,89.34
2023-01-26T00:41:34.065Z,88.53
2023-01-26T00:44:01.467Z,88.97
2023-01-26T00:46:28.457Z,88.32
2023-01-26T00:48:55.655Z,88.64
2023-01-26T00:51:23.107Z,87.31
2023-01-26T00:53:50.076Z,88.52
2023-01-26T00:56:17.004Z,88.87
2023-01-26T00:58:45.736Z,88.21
2023-01-26T01:01:13.182Z,88.71
2023-01-26T01:03:40.144Z,87.98
2023-01-26T01:06:07.158Z,88.38
2023-01-26T01:08:34.048Z,88.14
2023-01-26T01:11:11.593Z,87.68
2023-01-26T01:13:39.264Z,88.05
2023-01-26T01:16:07.991Z,88.13
2023-01-26T01:18:35.479Z,87.94
2023-01-26T01:21:10.255Z,87.92
2023-01-26T01:23:38.038Z,87.14
2023-01-26T01:26:06.065Z,87.48
2023-01-26T01:28:34.443Z,87.79
2023-01-26T01:31:07.726Z,87.35
2023-01-26T01:33:35.123Z,86.98
2023-01-26T01:36:07.889Z,86.91
2023-01-26T01:38:35.457Z,87.05
2023-01-26T01:41:02.762Z,86.38
2023-01-26T01:43:30.105Z,87.35
2023-01-26T01:45:57.053Z,87.29
2023-01-26T01:48:40.641Z,87.03
2023-01-26T01:51:15.318Z,87.61
2023-01-26T01:53:46.735Z,86.61
2023-01-26T01:56:21.836Z,86.34
2023-01-26T01:58:52.682Z,86.34
2023-01-26T02:01:19.853Z,86.55
2023-01-26T02:03:50.645Z,87.00
2023-01-26T02:07:16.788Z,86.21
2023-01-26T02:10:17.142Z,86.45
2023-01-26T02:13:11.413Z,86.04
2023-01-26T02:16:01.377Z,86.03
2023-01-26T02:18:45.424Z,85.71
2023-01-26T02:21:39.514Z,85.55
2023-01-26T02:24:37.846Z,86.00
2023-01-26T02:27:04.859Z,85.99
2023-01-26T02:29:31.836Z,85.80
2023-01-26T02:31:58.836Z,86.44
2023-01-26T02:34:29.033Z,87.00
2023-01-26T02:36:59.751Z,86.09
2023-01-26T02:39:49.890Z,86.22
2023-01-26T02:42:35.532Z,85.68
2023-01-26T02:45:02.568Z,85.74
2023-01-26T02:47:29.499Z,85.96
2023-01-26T02:49:58.450Z,86.27
2023-01-26T02:52:27.940Z,85.74
2023-01-26T02:55:14.398Z,85.63
2023-01-26T02:57:42.619Z,85.65
2023-01-26T03:00:12.840Z,85.80
2023-01-26T03:02:41.670Z,86.54
2023-01-26T03:05:09.223Z,86.01
2023-01-26T03:07:36.377Z,86.10
2023-01-26T03:10:04.949Z,85.90
2023-01-26T03:12:32.249Z,85.83
2023-01-26T03:15:17.774Z,85.54
2023-01-26T03:17:44.944Z,85.53
2023-01-26T03:20:30.975Z,85.03
2023-01-26T03:23:36.458Z,85.38
2023-01-26T03:26:22.211Z,85.59
2023-01-26T03:28:49.121Z,85.74
2023-01-26T03:31:16.002Z,85.89
2023-01-26T03:33:42.923Z,87.14
2023-01-26T03:36:09.860Z,88.17
2023-01-26T03:38:36.763Z,88.85
2023-01-26T03:41:22.349Z,88.38
2023-01-26T03:44:07.878Z,88.94
2023-01-26T03:46:53.340Z,89.19
2023-01-26T03:49:41.163Z,89.25
2023-01-26T03:52:26.547Z,89.57
2023-01-26T03:55:11.872Z,89.55
2023-01-26T03:57:38.806Z,90.98
2023-01-26T04:00:06.520Z,89.68
2023-01-26T04:02:52.237Z,90.35
2023-01-26T04:05:37.537Z,89.90
2023-01-26T04:08:24.653Z,90.40
2023-01-26T04:10:52.108Z,89.53
2023-01-26T04:13:41.738Z,89.88
2023-01-26T04:16:28.650Z,89.92
2023-01-26T04:19:14.411Z,89.06
2023-01-26T04:21:41.343Z,88.01
2023-01-26T04:24:16.686Z,90.38
2023-01-26T04:26:44.238Z,89.03
2023-01-26T04:29:13.249Z,89.03
2023-01-26T04:31:41.914Z,89.70
2023-01-26T04:34:14.269Z,89.86
2023-01-26T04:36:42.450Z,89.67
2023-01-26T04:39:10.389Z,90.41
2023-01-26T04:41:37.341Z,91.28
2023-01-26T04:44:04.354Z,91.19
2023-01-26T04:46:31.348Z,90.50
2023-01-26T04:48:58.250Z,90.76
2023-01-26T04:51:25.435Z,90.65
2023-01-26T04:53:52.408Z,90.96
2023-01-26T04:56:31.301Z,89.78
2023-01-26T04:59:03.668Z,90.44
2023-01-26T05:01:31.806Z,90.86
2023-01-26T05:04:03.899Z,90.37
2023-01-26T05:06:31.225Z,90.03
2023-01-26T05:08:58.604Z,90.59
2023-01-26T05:11:26.070Z,90.83
2023-01-26T05:13:53.016Z,90.07
2023-01-26T05:16:20.115Z,90.12
2023-01-26T05:18:47.056Z,91.31
2023-01-26T05:21:14.562Z,90.71
2023-01-26T05:23:41.525Z,90.55
2023-01-26T05:26:08.794Z,89.28
2023-01-26T05:28:36.162Z,89.79
2023-01-26T05:31:03.253Z,89.68
2023-01-26T05:33:30.206Z,89.02
2023-01-26T05:35:57.294Z,87.78
2023-01-26T05:38:24.210Z,88.21
2023-01-26T05:40:51.136Z,90.46
2023-01-26T05:43:18.035Z,91.12
2023-01-26T05:45:44.968Z,90.60
2023-01-26T05:48:11.899Z,92.20
2023-01-26T05:50:38.935Z,91.56
2023-01-26T05:53:06.446Z,91.52
2023-01-26T05:55:33.492Z,91.05
2023-01-26T05:58:00.419Z,90.90
2023-01-26T06:00:27.448Z,90.48
2023-01-26T06:02:54.446Z,89.80
2023-01-26T06:05:21.353Z,89.94
2023-01-26T06:07:48.255Z,91.41
2023-01-26T06:10:15.269Z,90.57
2023-01-26T06:12:43.299Z,90.25
2023-01-26T06:15:12.831Z,90.39
2023-01-26T06:17:40.301Z,89.48
2023-01-26T06:20:08.567Z,90.45
2023-01-26T06:22:35.575Z,90.06
2023-01-26T06:25:02.538Z,90.06
2023-01-26T06:27:29.820Z,89.44
2023-01-26T06:29:56.954Z,89.33
2023-01-26T06:32:23.881Z,89.19
2023-01-26T06:34:53.088Z,89.14
2023-01-26T06:37:20.188Z,88.84
2023-01-26T06:39:47.113Z,88.36
2023-01-26T06:42:14.012Z,89.07
2023-01-26T06:44:40.917Z,89.34
2023-01-26T06:47:07.979Z,88.87
2023-01-26T06:49:35.064Z,88.02
2023-01-26T06:52:31.216Z,87.55
2023-01-26T06:55:00.683Z,91.14
2023-01-26T06:57:27.943Z,89.96
2023-01-26T06:59:57.468Z,89.77
2023-01-26T07:02:24.504Z,89.29
2023-01-26T07:04:51.863Z,89.92
2023-01-26T07:07:18.777Z,89.05
2023-01-26T07:09:45.747Z,88.62
2023-01-26T07:12:12.821Z,88.90
2023-01-26T07:14:39.817Z,88.76
2023-01-26T07:17:06.823Z,89.02
2023-01-26T07:19:34.217Z,88.24
2023-01-26T07:22:01.972Z,88.54
2023-01-26T07:24:29.673Z,87.29
2023-01-26T07:26:57.149Z,88.07
2023-01-26T07:29:24.096Z,87.35
2023-01-26T07:31:51.409Z,87.06
2023-01-26T07:34:18.581Z,87.08
2023-01-26T07:36:45.851Z,86.97
2023-01-26T07:39:12.824Z,86.77
2023-01-26T07:41:39.891Z,86.50
2023-01-26T07:44:10.461Z,85.79
2023-01-26T07:46:37.899Z,85.75
2023-01-26T07:49:04.852Z,85.92
2023-01-26T07:51:31.892Z,85.83
2023-01-26T07:53:59.281Z,84.98
2023-01-26T07:56:26.394Z,85.43
2023-01-26T07:58:54.559Z,85.13
2023-01-26T08:01:22.229Z,85.64
2023-01-26T08:03:53.799Z,85.04
2023-01-26T08:06:21.356Z,84.66
2023-01-26T08:08:51.385Z,84.14
2023-01-26T08:11:19.675Z,84.79
2023-01-26T08:13:46.571Z,85.67
2023-01-26T08:16:13.825Z,86.30
2023-01-26T08:18:46.069Z,84.96
2023-01-26T08:21:14.757Z,84.39
2023-01-26T08:23:41.823Z,84.56
2023-01-26T08:26:11.888Z,84.27
2023-01-26T08:28:39.419Z,84.66
2023-01-26T08:31:09.081Z,84.73
2023-01-26T08:33:36.314Z,85.46
2023-01-26T08:36:08.125Z,85.30
2023-01-26T08:38:35.670Z,86.33
2023-01-26T08:41:03.547Z,86.71
2023-01-26T08:43:30.956Z,86.69
2023-01-26T08:45:58.343Z,86.24
2023-01-26T08:48:25.400Z,86.72
2023-01-26T08:50:56.708Z,87.69
2023-01-26T08:53:24.565Z,87.46
2023-01-26T08:55:52.088Z,87.45
2023-01-26T08:58:21.340Z,86.42
2023-01-26T09:00:48.319Z,85.85
2023-01-26T09:03:15.516Z,85.81
2023-01-26T09:05:42.474Z,84.90
2023-01-26T09:08:10.652Z,83.95
2023-01-26T09:10:38.474Z,84.51
2023-01-26T09:13:06.077Z,84.52
2023-01-26T09:15:32.967Z,83.52
2023-01-26T09:18:01.012Z,84.45
2023-01-26T09:20:29.051Z,83.83
2023-01-26T09:22:56.000Z,83.72
2023-01-26T09:25:22.901Z,82.60
2023-01-26T09:27:49.782Z,82.13
2023-01-26T09:30:17.184Z,82.67
2023-01-26T09:32:44.134Z,83.04
2023-01-26T09:35:14.821Z,83.95
2023-01-26T09:37:44.193Z,84.43
2023-01-26T09:40:22.374Z,84.50
2023-01-26T09:43:11.703Z,83.93
2023-01-26T09:45:55.071Z,83.88
2023-01-26T09:48:35.256Z,81.44
2023-01-26T09:51:13.553Z,81.81
2023-01-26T09:53:48.222Z,80.61
2023-01-26T09:56:26.019Z,81.53
2023-01-26T09:59:03.384Z,80.96
2023-01-26T10:01:38.754Z,81.95
2023-01-26T10:04:37.232Z,81.85
2023-01-26T10:07:10.732Z,81.33
2023-01-26T10:09:40.121Z,80.10
2023-01-26T10:12:34.283Z,81.30
2023-01-26T10:15:08.614Z,79.21
2023-01-26T10:17:39.175Z,79.53
2023-01-26T10:20:15.106Z,78.43
2023-01-26T10:22:47.847Z,79.26
2023-01-26T10:25:20.922Z,79.68
2023-01-26T10:27:47.965Z,79.67
2023-01-26T10:30:20.173Z,78.30
2023-01-26T10:32:51.111Z,76.81
2023-01-26T10:35:21.279Z,77.72
2023-01-26T10:37:49.016Z,77.76
2023-01-26T10:40:17.607Z,79.17
2023-01-26T10:42:55.336Z,77.30
2023-01-26T10:45:32.464Z,77.29
2023-01-26T10:48:18.157Z,78.07
2023-01-26T10:50:47.038Z,76.16
2023-01-26T10:53:25.893Z,75.65
2023-01-26T10:56:04.901Z,75.78
2023-01-26T10:58:55.912Z,75.74
2023-01-26T11:01:27.877Z,76.25
2023-01-26T11:04:07.909Z,75.68
2023-01-26T11:06:35.647Z,75.47
2023-01-26T11:09:19.225Z,75.21
2023-01-26T11:12:02.780Z,75.29
2023-01-26T11:14:32.739Z,74.22
2023-01-26T11:17:10.058Z,74.70
2023-01-26T11:19:45.608Z,74.48
2023-01-26T11:22:19.769Z,74.02
2023-01-26T11:25:08.227Z,74.80
2023-01-26T11:27:43.325Z,74.39
2023-01-26T11:30:33.369Z,75.19
2023-01-26T11:33:36.076Z,73.78
2023-01-26T11:36:08.824Z,74.64
2023-01-26T11:38:40.562Z,73.88
2023-01-26T11:41:37.391Z,74.52
2023-01-26T11:44:16.203Z,75.54
2023-01-26T11:47:15.214Z,75.50
2023-01-26T11:49:44.923Z,76.50
2023-01-26T11:52:17.689Z,77.75
2023-01-26T11:54:50.680Z,74.01
2023-01-26T11:57:28.047Z,75.88
2023-01-26T12:00:00.439Z,76.56
2023-01-26T12:02:32.022Z,76.62
2023-01-26T12:05:03.633Z,76.95
2023-01-26T12:07:51.523Z,76.91
2023-01-26T12:10:25.123Z,77.79
2023-01-26T12:13:29.580Z,78.36
2023-01-26T12:16:01.983Z,77.21
2023-01-26T12:18:58.845Z,78.89
2023-01-26T12:21:37.504Z,78.35
2023-01-26T12:24:06.349Z,80.74
2023-01-26T12:26:42.859Z,78.73
2023-01-26T12:29:21.734Z,78.67
2023-01-26T12:31:53.084Z,78.86
2023-01-26T12:34:26.114Z,78.00
2023-01-26T12:37:14.845Z,77.86
2023-01-26T12:39:46.328Z,78.18
2023-01-26T12:42:19.691Z,78.33
2023-01-26T12:44:55.221Z,78.91
2023-01-26T12:47:33.373Z,78.24
2023-01-26T12:50:07.115Z,77.16
2023-01-26T12:52:52.231Z,76.01
2023-01-26T12:55:24.237Z,78.88
2023-01-26T12:57:56.328Z,79.53
2023-01-26T13:00:33.494Z,80.24
2023-01-26T13:03:16.384Z,79.92
2023-01-26T13:06:03.083Z,79.11
2023-01-26T13:08:32.707Z,78.60
2023-01-26T13:11:02.045Z,78.96
2023-01-26T13:13:34.907Z,78.00
2023-01-26T13:16:30.487Z,77.29
2023-01-26T13:18:59.545Z,77.78
2023-01-26T13:21:36.407Z,77.46
2023-01-26T13:24:03.953Z,76.71
2023-01-26T13:26:33.559Z,76.40
2023-01-26T13:29:25.315Z,76.37
2023-01-26T13:31:55.110Z,75.45
2023-01-26T13:34:39.631Z,76.28
2023-01-26T13:37:15.154Z,76.55
2023-01-26T13:39:47.445Z,76.82
2023-01-26T13:42:27.078Z,76.24
2023-01-26T13:45:04.516Z,77.58
2023-01-26T13:47:39.514Z,77.11
2023-01-26T13:50:23.893Z,75.78
2023-01-26T13:52:51.526Z,75.96
2023-01-26T13:55:27.758Z,75.87
2023-01-26T13:58:14.841Z,75.58
2023-01-26T14:00:42.178Z,74.96
2023-01-26T14:03:22.647Z,75.67
2023-01-26T14:06:00.615Z,75.82
2023-01-26T14:08:28.035Z,76.83
2023-01-26T14:10:55.948Z,77.41
2023-01-26T14:13:39.231Z,77.68
2023-01-26T14:16:07.385Z,77.14
2023-01-26T14:18:34.529Z,76.41
2023-01-26T14:21:05.254Z,76.78
2023-01-26T14:23:37.211Z,76.95
2023-01-26T14:26:12.509Z,77.58
2023-01-26T14:28:43.035Z,77.79
2023-01-26T14:31:20.600Z,77.57
2023-01-26T14:33:49.741Z,78.57
2023-01-26T14:36:18.701Z,78.08
2023-01-26T14:38:48.587Z,77.27
2023-01-26T14:41:31.159Z,77.64
2023-01-26T14:44:04.287Z,78.59
2023-01-26T14:47:03.677Z,79.23
2023-01-26T14:49:58.736Z,78.86
2023-01-26T14:52:38.518Z,79.33
2023-01-26T14:55:12.691Z,79.67
2023-01-26T14:57:39.895Z,79.19
2023-01-26T15:00:10.970Z,79.26
2023-01-26T15:02:43.498Z,79.99
2023-01-26T15:05:20.952Z,79.50
2023-01-26T15:07:59.587Z,79.74
2023-01-26T15:10:43.801Z,79.73
2023-01-26T15:13:10.671Z,80.33
2023-01-26T15:15:40.390Z,80.69
2023-01-26T15:18:13.335Z,80.30
2023-01-26T15:21:01.786Z,81.39
2023-01-26T15:23:37.635Z,81.17
2023-01-26T15:26:10.000Z,81.50
2023-01-26T15:28:38.804Z,81.25
2023-01-26T15:31:06.713Z,81.81
2023-01-26T15:33:44.628Z,81.68
2023-01-26T15:36:43.786Z,81.26
2023-01-26T15:39:16.448Z,81.36
2023-01-26T15:41:45.898Z,80.75
2023-01-26T15:44:21.623Z,81.30
2023-01-26T15:46:48.607Z,82.20
2023-01-26T15:49:15.844Z,81.79
2023-01-26T15:51:42.819Z,81.46
2023-01-26T15:54:11.672Z,81.58
2023-01-26T15:56:38.892Z,81.97
2023-01-26T15:59:05.877Z,81.58
2023-01-26T16:01:33.057Z,81.81
2023-01-26T16:04:00.032Z,82.22
2023-01-26T16:06:32.956Z,83.00
2023-01-26T16:08:59.887Z,82.52
2023-01-26T16:11:30.508Z,82.68
2023-01-26T16:14:03.651Z,82.43
2023-01-26T16:16:32.265Z,82.33
2023-01-26T16:18:59.605Z,83.09
2023-01-26T16:21:33.379Z,82.78
2023-01-26T16:24:01.618Z,83.47
2023-01-26T16:26:30.045Z,83.15
2023-01-26T16:28:57.542Z,83.25
2023-01-26T16:31:29.262Z,83.56
2023-01-26T16:33:56.812Z,83.73
2023-01-26T16:36:23.762Z,83.50
2023-01-26T16:38:50.987Z,84.18
2023-01-26T16:41:32.805Z,84.18
2023-01-26T16:44:02.577Z,84.55
2023-01-26T16:46:30.795Z,84.15
2023-01-26T16:48:57.882Z,84.25
2023-01-26T16:51:30.751Z,84.23
2023-01-26T16:53:57.993Z,84.24
2023-01-26T16:56:25.667Z,84.15
2023-01-26T16:58:52.615Z,84.53
2023-01-26T17:01:28.677Z,84.51
2023-01-26T17:03:56.631Z,84.68
2023-01-26T17:06:23.868Z,84.37
2023-01-26T17:08:51.172Z,84.79
2023-01-26T17:11:20.449Z,84.04
2023-01-26T17:13:48.407Z,85.06
2023-01-26T17:16:21.540Z,84.74
2023-01-26T17:18:49.375Z,84.82
2023-01-26T17:21:18.387Z,84.28
2023-01-26T17:23:49.191Z,84.63
2023-01-26T17:26:17.503Z,85.31
2023-01-26T17:28:45.778Z,85.16
2023-01-26T17:31:19.616Z,84.84
2023-01-26T17:33:48.454Z,84.21
2023-01-26T17:36:17.010Z,84.88
2023-01-26T17:38:44.868Z,84.64
2023-01-26T17:41:11.837Z,84.89
2023-01-26T17:43:38.782Z,84.85
2023-01-26T17:46:12.691Z,84.31
2023-01-26T17:48:40.401Z,84.31
2023-01-26T17:51:16.975Z,85.36
2023-01-26T17:53:46.937Z,84.87
2023-01-26T17:56:17.246Z,84.73
2023-01-26T17:58:48.899Z,85.09
2023-01-26T18:01:16.058Z,85.22
2023-01-26T18:03:43.717Z,85.31
2023-01-26T18:06:11.517Z,85.24
2023-01-26T18:08:39.234Z,85.04
2023-01-26T18:11:09.694Z,85.39
2023-01-26T18:13:37.174Z,85.28
2023-01-26T18:16:06.692Z,84.68
2023-01-26T18:18:33.910Z,84.32
2023-01-26T18:21:20.332Z,86.04
2023-01-26T18:23:48.541Z,85.13
2023-01-26T18:26:17.397Z,85.66
2023-01-26T18:28:45.136Z,85.10
2023-01-26T18:31:13.443Z,85.65
2023-01-26T18:33:40.658Z,85.45
2023-01-26T18:36:12.204Z,85.14
2023-01-26T18:38:40.533Z,84.92
2023-01-26T18:41:11.805Z,85.02
2023-01-26T18:43:39.479Z,85.25
2023-01-26T18:46:06.715Z,85.26
2023-01-26T18:48:35.510Z,85.67
2023-01-26T18:51:02.925Z,85.51
2023-01-26T18:53:30.204Z,85.44
2023-01-26T18:56:05.949Z,85.64
2023-01-26T18:58:34.235Z,85.10
2023-01-26T19:01:01.645Z,85.07
2023-01-26T19:03:28.557Z,85.63
2023-01-26T19:05:55.475Z,85.35
2023-01-26T19:08:25.124Z,84.99
2023-01-26T19:10:52.105Z,85.17
2023-01-26T19:13:19.125Z,84.12
2023-01-26T19:15:47.844Z,84.67
2023-01-26T19:18:17.556Z,84.18
2023-01-26T19:20:44.475Z,85.44
2023-01-26T19:23:11.413Z,84.44
2023-01-26T19:25:38.643Z,84.46
2023-01-26T19:28:05.559Z,84.45
2023-01-26T19:30:33.479Z,84.53
2023-01-26T19:33:18.853Z,84.97
2023-01-26T19:35:45.831Z,84.82
2023-01-26T19:38:12.748Z,85.10
2023-01-26T19:40:39.717Z,84.80
2023-01-26T19:43:07.070Z,84.84
2023-01-26T19:45:34.025Z,85.05
2023-01-26T19:48:00.964Z,84.88
2023-01-26T19:50:27.877Z,84.16
2023-01-26T19:52:54.845Z,84.58
2023-01-26T19:55:22.102Z,84.37
2023-01-26T19:57:49.290Z,84.93
2023-01-26T20:00:16.574Z,84.74
2023-01-26T20:02:43.547Z,84.94
2023-01-26T20:05:10.763Z,84.82
2023-01-26T20:07:38.011Z,85.02
2023-01-26T20:10:06.535Z,85.01
2023-01-26T20:12:33.823Z,85.18
2023-01-26T20:15:00.942Z,84.50
2023-01-26T20:17:27.939Z,84.62
2023-01-26T20:19:55.508Z,84.95
2023-01-26T20:22:24.435Z,85.03
2023-01-26T20:24:51.377Z,85.20
2023-01-26T20:27:18.344Z,84.60
2023-01-26T20:29:45.286Z,84.97
2023-01-26T20:32:14.011Z,85.57
2023-01-26T20:34:41.202Z,85.18
2023-01-26T20:37:09.226Z,85.50
2023-01-26T20:39:36.154Z,85.02
2023-01-26T20:42:04.071Z,85.05
2023-01-26T20:44:32.317Z,85.68
2023-01-26T20:46:59.461Z,85.12
2023-01-26T20:49:26.393Z,85.50
2023-01-26T20:51:53.433Z,85.23
2023-01-26T20:54:22.982Z,85.22
2023-01-26T20:56:51.590Z,85.24
2023-01-26T20:59:22.923Z,85.62
2023-01-26T21:01:50.017Z,85.15
2023-01-26T21:04:16.965Z,84.84
2023-01-26T21:06:44.081Z,85.62
2023-01-26T21:09:12.861Z,86.57
2023-01-26T21:11:40.665Z,86.20
2023-01-26T21:14:07.639Z,86.36
2023-01-26T21:16:36.286Z,86.49
2023-01-26T21:19:03.317Z,86.33
2023-01-26T21:21:30.243Z,86.35
2023-01-26T21:23:57.603Z,86.74
2023-01-26T21:26:26.319Z,86.26
2023-01-26T21:28:59.837Z,85.81
2023-01-26T21:31:29.872Z,85.76
2023-01-26T21:33:57.417Z,86.82
2023-01-26T21:36:28.616Z,87.19
2023-01-26T21:38:58.009Z,87.07
2023-01-26T21:41:49.414Z,86.86
2023-01-26T21:44:30.701Z,87.33
2023-01-26T21:47:03.998Z,86.98
2023-01-26T21:49:31.406Z,87.14
2023-01-26T21:52:16.881Z,87.32
2023-01-26T21:54:43.883Z,87.45
2023-01-26T21:57:30.352Z,87.49
2023-01-26T21:59:57.256Z,87.20
2023-01-26T22:02:24.313Z,87.33
2023-01-26T22:04:51.314Z,87.02
2023-01-26T22:07:18.390Z,87.74
2023-01-26T22:09:45.475Z,88.04
2023-01-26T22:12:12.412Z,88.20
2023-01-26T22:14:39.337Z,87.78
2023-01-26T22:17:06.268Z,87.34
2023-01-26T22:19:33.162Z,87.87
2023-01-26T22:22:00.228Z,87.66
2023-01-26T22:24:27.168Z,88.12
2023-01-26T22:26:54.090Z,87.92
2023-01-26T22:29:21.004Z,87.98
2023-01-26T22:31:48.030Z,88.62
2023-01-26T22:34:15.005Z,88.30
2023-01-26T22:36:42.140Z,88.39
2023-01-26T22:39:09.329Z,89.72
2023-01-26T22:41:37.922Z,90.03
2023-01-26T22:44:05.320Z,90.84
2023-01-26T22:46:33.223Z,91.37
2023-01-26T22:49:00.673Z,91.56
2023-01-26T22:51:33.143Z,92.43
2023-01-26T22:54:00.554Z,92.31
2023-01-26T22:56:27.692Z,92.39
2023-01-26T22:58:59.593Z,91.88
2023-01-26T23:01:29.812Z,91.33
2023-01-26T23:03:57.662Z,91.38
2023-01-26T23:06:26.188Z,91.49
2023-01-26T23:08:53.604Z,91.40
2023-01-26T23:11:23.647Z,92.17
2023-01-26T23:13:52.395Z,92.07
2023-01-26T23:16:19.902Z,92.55
2023-01-26T23:18:46.837Z,92.23
2023-01-26T23:21:13.876Z,91.33
2023-01-26T23:23:41.370Z,91.07
2023-01-26T23:26:09.325Z,92.13
2023-01-26T23:28:40.168Z,92.23
2023-01-26T23:31:08.276Z,93.54
2023-01-26T23:33:36.787Z,92.34
2023-01-26T23:36:04.524Z,92.51
2023-01-26T23:38:32.464Z,91.67
2023-01-26T23:41:03.078Z,90.75
2023-01-26T23:43:30.028Z,90.96
2023-01-26T23:45:57.038Z,91.55
2023-01-26T23:48:25.296Z,91.81
2023-01-26T23:51:00.330Z,91.83
2023-01-26T23:53:28.506Z,91.92
2023-01-26T23:55:56.107Z,91.27
2023-01-26T23:58:23.170Z,90.85
